createdAt,value
2022-12-27T00:02:28.787Z,4.30
2022-12-27T00:06:31.153Z,4.30
2022-12-27T00:10:33.461Z,4.20
2022-12-27T00:14:35.358Z,3.80
2022-12-27T00:18:38.718Z,4.20
2022-12-27T00:22:41.155Z,4.30
2022-12-27T00:26:43.169Z,3.50
2022-12-27T00:30:45.082Z,3.30
2022-12-27T00:34:46.993Z,3.20
2022-12-27T00:38:50.055Z,3.20
2022-12-27T00:42:51.928Z,2.90
2022-12-27T00:46:53.831Z,2.90
2022-12-27T00:51:00.873Z,2.50
2022-12-27T00:55:02.730Z,2.60
2022-12-27T00:59:05.633Z,2.90
2022-12-27T01:03:07.618Z,2.20
2022-12-27T01:07:09.555Z,2.90
2022-12-27T01:11:12.654Z,2.60
2022-12-27T01:15:14.567Z,2.50
2022-12-27T01:19:16.576Z,2.20
2022-12-27T01:23:18.478Z,1.90
2022-12-27T01:27:20.345Z,2.20
2022-12-27T01:31:25.166Z,2.00
2022-12-27T01:35:27.111Z,1.90
2022-12-27T01:39:29.043Z,2.20
2022-12-27T01:43:38.579Z,2.60
2022-12-27T01:47:46.443Z,2.00
2022-12-27T01:51:48.440Z,1.70
2022-12-27T01:56:00.108Z,1.80
2022-12-27T02:00:02.480Z,2.60
2022-12-27T02:04:16.747Z,2.50
2022-12-27T02:08:33.968Z,2.50
2022-12-27T02:12:35.960Z,2.00
2022-12-27T02:16:37.901Z,2.40
2022-12-27T02:21:24.567Z,2.70
2022-12-27T02:25:48.257Z,2.70
2022-12-27T02:30:04.304Z,3.30
2022-12-27T02:34:16.460Z,2.50
2022-12-27T02:38:21.430Z,2.60
2022-12-27T02:42:42.474Z,2.50
2022-12-27T02:47:03.535Z,2.40
2022-12-27T02:51:23.809Z,2.30
2022-12-27T02:55:25.742Z,1.90
2022-12-27T03:00:13.609Z,2.50
2022-12-27T03:04:36.564Z,2.60
2022-12-27T03:09:01.046Z,2.40
2022-12-27T03:13:38.744Z,1.90
2022-12-27T03:17:47.672Z,2.10
2022-12-27T03:22:08.546Z,2.50
2022-12-27T03:26:12.415Z,2.70
2022-12-27T03:30:33.076Z,3.00
2022-12-27T03:34:41.470Z,3.10
2022-12-27T03:38:53.975Z,3.10
2022-12-27T03:43:11.911Z,2.70
2022-12-27T03:47:21.760Z,2.90
2022-12-27T03:51:26.266Z,2.90
2022-12-27T03:55:33.142Z,3.20
2022-12-27T03:59:35.751Z,2.80
2022-12-27T04:03:37.738Z,2.90
2022-12-27T04:07:39.722Z,3.00
2022-12-27T04:12:00.143Z,3.00
2022-12-27T04:16:20.527Z,2.80
2022-12-27T04:20:40.974Z,3.00
2022-12-27T04:25:01.269Z,2.90
2022-12-27T04:29:21.496Z,2.80
2022-12-27T04:33:41.871Z,2.20
2022-12-27T04:37:43.780Z,2.70
2022-12-27T04:42:04.339Z,2.90
2022-12-27T04:46:28.315Z,2.90
2022-12-27T04:50:51.545Z,3.00
2022-12-27T04:54:56.978Z,2.80
2022-12-27T04:59:17.263Z,2.80
2022-12-27T05:03:22.962Z,2.80
2022-12-27T05:07:43.743Z,2.80
2022-12-27T05:12:04.012Z,2.60
2022-12-27T05:16:06.256Z,2.60
2022-12-27T05:20:08.872Z,2.40
2022-12-27T05:24:29.318Z,2.30
2022-12-27T05:28:31.562Z,2.20
2022-12-27T05:32:33.437Z,2.20
2022-12-27T05:36:35.318Z,2.20
2022-12-27T05:40:37.289Z,2.20
2022-12-27T05:44:39.266Z,2.20
2022-12-27T05:48:41.670Z,2.10
2022-12-27T05:52:43.975Z,2.10
2022-12-27T05:56:45.886Z,2.00
2022-12-27T06:00:47.910Z,1.90
2022-12-27T06:04:49.884Z,2.00
2022-12-27T06:08:52.407Z,2.10
2022-12-27T06:12:54.416Z,2.00
2022-12-27T06:16:56.409Z,1.80
2022-12-27T06:21:13.761Z,1.60
2022-12-27T06:25:15.831Z,1.80
2022-12-27T06:29:17.748Z,1.80
2022-12-27T06:33:19.695Z,1.60
2022-12-27T06:37:21.869Z,1.50
2022-12-27T06:41:23.909Z,1.40
2022-12-27T06:45:25.830Z,1.40
2022-12-27T06:49:27.849Z,1.50
2022-12-27T06:53:29.740Z,1.50
2022-12-27T06:57:31.680Z,1.50
2022-12-27T07:01:33.765Z,1.20
2022-12-27T07:05:36.667Z,1.30
2022-12-27T07:09:38.581Z,1.30
2022-12-27T07:13:46.045Z,1.30
2022-12-27T07:17:47.962Z,1.50
2022-12-27T07:21:50.043Z,1.50
2022-12-27T07:25:51.895Z,1.40
2022-12-27T07:29:53.790Z,1.40
2022-12-27T07:33:56.887Z,1.40
2022-12-27T07:37:58.805Z,1.30
2022-12-27T07:42:04.790Z,1.20
2022-12-27T07:46:15.671Z,0.90
2022-12-27T07:50:17.619Z,1.00
2022-12-27T07:54:20.242Z,1.10
2022-12-27T07:58:22.427Z,1.20
2022-12-27T08:02:24.360Z,1.20
2022-12-27T08:06:30.735Z,1.30
2022-12-27T08:10:33.953Z,1.30
2022-12-27T08:14:35.927Z,1.30
2022-12-27T08:18:37.886Z,1.50
2022-12-27T08:22:39.814Z,1.50
2022-12-27T08:26:41.782Z,1.60
2022-12-27T08:30:45.399Z,2.00
2022-12-27T08:34:47.473Z,1.80
2022-12-27T08:38:49.413Z,1.80
2022-12-27T08:42:51.278Z,1.70
2022-12-27T08:46:53.438Z,1.80
2022-12-27T08:50:55.367Z,1.80
2022-12-27T08:54:57.265Z,1.90
2022-12-27T08:58:59.235Z,2.00
2022-12-27T09:03:01.209Z,2.00
2022-12-27T09:07:03.603Z,2.10
2022-12-27T09:11:11.183Z,2.20
2022-12-27T09:15:13.847Z,2.30
2022-12-27T09:19:15.883Z,2.40
2022-12-27T09:23:17.846Z,2.50
2022-12-27T09:27:19.783Z,2.60
2022-12-27T09:31:23.311Z,2.50
2022-12-27T09:35:25.220Z,2.80
2022-12-27T09:39:28.365Z,2.80
2022-12-27T09:43:53.374Z,3.00
2022-12-27T09:48:06.026Z,2.30
2022-12-27T09:52:22.744Z,2.40
2022-12-27T09:56:47.300Z,2.60
2022-12-27T10:00:53.237Z,2.80
2022-12-27T10:09:46.486Z,3.10
2022-12-27T10:13:57.617Z,2.90
2022-12-27T10:18:20.859Z,3.20
2022-12-27T10:23:01.438Z,3.20
2022-12-27T10:27:19.513Z,3.20
2022-12-27T10:31:23.543Z,3.50
2022-12-27T10:35:26.213Z,3.50
2022-12-27T10:39:30.607Z,3.50
2022-12-27T10:43:37.459Z,3.70
2022-12-27T10:47:39.451Z,3.80
2022-12-27T10:51:42.391Z,3.60
2022-12-27T10:55:44.404Z,3.90
2022-12-27T10:59:46.312Z,4.00
2022-12-27T11:03:48.371Z,3.60
2022-12-27T11:07:50.245Z,4.00
2022-12-27T11:11:52.614Z,3.80
2022-12-27T11:15:58.968Z,3.70
2022-12-27T11:20:22.186Z,3.60
2022-12-27T11:24:24.282Z,3.90
2022-12-27T11:28:33.494Z,4.20
2022-12-27T11:32:35.416Z,4.00
2022-12-27T11:36:43.020Z,4.40
2022-12-27T11:40:45.020Z,3.70
2022-12-27T11:45:03.115Z,4.10
2022-12-27T11:49:11.952Z,3.90
2022-12-27T11:53:42.978Z,4.10
2022-12-27T11:57:50.942Z,4.50
2022-12-27T12:02:16.547Z,3.80
2022-12-27T12:06:21.859Z,4.20
2022-12-27T12:10:54.581Z,4.40
2022-12-27T12:15:21.133Z,4.60
2022-12-27T12:19:38.180Z,4.80
2022-12-27T12:24:17.531Z,4.30
2022-12-27T12:28:57.573Z,4.50
2022-12-27T12:33:12.000Z,4.70
2022-12-27T12:37:47.912Z,4.70
2022-12-27T12:42:08.126Z,4.90
2022-12-27T12:46:47.566Z,4.60
2022-12-27T12:51:26.314Z,4.50
2022-12-27T12:55:47.398Z,4.70
2022-12-27T13:00:28.559Z,4.80
2022-12-27T13:04:52.290Z,4.50
2022-12-27T13:09:21.131Z,4.50
2022-12-27T13:13:47.299Z,4.50
2022-12-27T13:18:10.438Z,4.80
2022-12-27T13:22:47.068Z,4.80
2022-12-27T13:27:05.621Z,4.90
2022-12-27T13:31:25.533Z,4.90
2022-12-27T13:36:05.219Z,5.40
2022-12-27T13:40:14.596Z,5.40
2022-12-27T13:44:31.740Z,5.70
2022-12-27T13:48:51.725Z,5.90
2022-12-27T13:53:27.464Z,5.90
2022-12-27T13:57:48.258Z,5.90
2022-12-27T14:02:19.680Z,5.90
2022-12-27T14:06:36.689Z,6.00
2022-12-27T14:10:55.297Z,6.10
2022-12-27T14:15:05.259Z,6.10
2022-12-27T14:19:34.540Z,5.80
2022-12-27T14:23:45.858Z,5.40
2022-12-27T14:28:09.692Z,5.60
2022-12-27T14:32:17.819Z,5.40
2022-12-27T14:36:37.683Z,5.70
2022-12-27T14:41:17.824Z,5.60
2022-12-27T14:45:37.848Z,5.60
2022-12-27T14:50:07.977Z,5.60
2022-12-27T14:54:16.116Z,5.50
2022-12-27T14:58:33.758Z,5.40
2022-12-27T15:02:58.703Z,5.30
2022-12-27T15:07:50.955Z,5.10
2022-12-27T15:12:05.744Z,5.00
2022-12-27T15:16:16.798Z,4.90
2022-12-27T15:20:44.947Z,4.70
2022-12-27T15:25:22.627Z,4.50
2022-12-27T15:29:32.438Z,4.50
2022-12-27T15:34:16.003Z,4.60
2022-12-27T15:38:53.912Z,4.30
2022-12-27T15:43:48.390Z,4.00
2022-12-27T15:48:05.436Z,3.90
2022-12-27T15:52:43.187Z,3.90
2022-12-27T15:56:57.020Z,3.80
2022-12-27T16:01:23.879Z,3.70
2022-12-27T16:05:49.429Z,3.60
2022-12-27T16:09:51.996Z,3.60
2022-12-27T16:14:24.203Z,3.60
2022-12-27T16:18:29.117Z,3.30
2022-12-27T16:22:35.988Z,3.50
2022-12-27T16:26:59.412Z,3.40
2022-12-27T16:31:11.812Z,3.50
2022-12-27T16:35:15.853Z,3.40
2022-12-27T16:39:46.757Z,3.20
2022-12-27T16:44:12.298Z,3.30
2022-12-27T16:48:24.597Z,3.30
2022-12-27T16:52:44.724Z,3.10
2022-12-27T16:56:48.338Z,3.00
2022-12-27T17:00:52.668Z,3.00
2022-12-27T17:04:58.395Z,3.00
2022-12-27T17:09:09.657Z,2.90
2022-12-27T17:13:11.703Z,2.90
2022-12-27T17:17:18.158Z,2.70
2022-12-27T17:21:30.319Z,2.70
2022-12-27T17:25:49.790Z,2.70
2022-12-27T17:30:10.621Z,2.70
2022-12-27T17:34:50.412Z,2.60
2022-12-27T17:38:57.824Z,2.60
2022-12-27T17:43:44.480Z,2.60
2022-12-27T17:47:58.881Z,2.60
2022-12-27T17:52:20.245Z,2.40
2022-12-27T17:56:42.164Z,2.40
2022-12-27T18:01:00.763Z,2.50
2022-12-27T18:05:14.844Z,2.30
2022-12-27T18:09:56.261Z,2.30
2022-12-27T18:14:00.584Z,2.30
2022-12-27T18:18:05.951Z,2.20
2022-12-27T18:22:19.203Z,2.00
2022-12-27T18:26:32.054Z,2.00
2022-12-27T18:30:40.321Z,2.10
2022-12-27T18:34:56.560Z,2.10
2022-12-27T18:39:02.430Z,2.00
2022-12-27T18:43:04.477Z,1.90
2022-12-27T18:47:06.899Z,1.90
2022-12-27T18:51:09.295Z,1.70
2022-12-27T18:55:26.759Z,1.60
2022-12-27T18:59:37.793Z,1.60
2022-12-27T19:03:41.066Z,1.50
2022-12-27T19:07:43.164Z,1.60
2022-12-27T19:12:07.258Z,1.50
2022-12-27T19:16:21.200Z,1.50
2022-12-27T19:20:26.728Z,1.60
2022-12-27T19:24:33.555Z,1.50
2022-12-27T19:28:36.323Z,1.40
2022-12-27T19:32:40.666Z,1.40
2022-12-27T19:36:45.136Z,0.90
2022-12-27T19:40:50.057Z,0.80
2022-12-27T19:44:52.003Z,0.80
2022-12-27T19:49:23.649Z,0.90
2022-12-27T19:53:19.069Z,1.00
2022-12-27T19:57:22.409Z,1.10
2022-12-27T20:01:24.528Z,1.10
2022-12-27T20:06:11.304Z,1.10
2022-12-27T20:09:48.412Z,1.20
2022-12-27T20:13:51.383Z,1.10
2022-12-27T20:17:53.257Z,0.90
2022-12-27T20:21:55.234Z,0.90
2022-12-27T20:25:57.429Z,0.70
2022-12-27T20:29:59.346Z,0.80
2022-12-27T20:34:01.322Z,0.90
2022-12-27T20:38:04.296Z,1.10
2022-12-27T20:42:06.569Z,0.90
2022-12-27T20:46:15.131Z,0.80
2022-12-27T20:50:17.746Z,0.60
2022-12-27T20:54:19.763Z,0.70
2022-12-27T20:58:21.707Z,0.70
2022-12-27T21:02:23.856Z,0.70
2022-12-27T21:06:29.592Z,0.60
2022-12-27T21:10:31.664Z,0.60
2022-12-27T21:14:33.975Z,0.60
2022-12-27T21:18:36.169Z,0.70
2022-12-27T21:22:38.126Z,0.60
2022-12-27T21:26:40.893Z,0.70
2022-12-27T21:30:42.823Z,0.50
2022-12-27T21:34:44.813Z,0.60
2022-12-27T21:38:47.925Z,0.60
2022-12-27T21:42:50.344Z,0.40
2022-12-27T21:46:52.251Z,0.30
2022-12-27T21:50:54.248Z,0.40
2022-12-27T21:54:56.155Z,0.30
2022-12-27T21:59:03.062Z,0.20
2022-12-27T22:03:05.269Z,0.40
2022-12-27T22:07:07.350Z,0.40
2022-12-27T22:11:09.963Z,0.30
2022-12-27T22:15:12.019Z,0.30
2022-12-27T22:19:14.048Z,0.20
2022-12-27T22:23:16.318Z,0.20
2022-12-27T22:27:18.253Z,0.30
2022-12-27T22:31:23.871Z,0.30
2022-12-27T22:35:25.858Z,0.40
2022-12-27T22:39:29.020Z,0.00
2022-12-27T22:43:31.094Z,0.10
2022-12-27T22:47:32.979Z,0.00
2022-12-27T22:51:37.299Z,-0.10
2022-12-27T22:55:42.498Z,0.00
2022-12-27T22:59:44.478Z,0.10
2022-12-27T23:03:47.279Z,0.10
2022-12-27T23:08:03.302Z,0.10
2022-12-27T23:12:08.250Z,-0.10
2022-12-27T23:16:10.370Z,-0.10
2022-12-27T23:20:12.295Z,-0.10
2022-12-27T23:24:14.619Z,0.00
2022-12-27T23:28:16.520Z,-0.10
2022-12-27T23:32:18.412Z,-0.10
2022-12-27T23:36:20.769Z,-0.10
2022-12-27T23:40:22.678Z,-0.10
2022-12-27T23:44:34.172Z,-0.20
2022-12-27T23:48:36.603Z,-0.30
2022-12-27T23:52:38.413Z,-0.20
2022-12-27T23:56:40.385Z,-0.30
